Airfield :
LOGIN :

Register | Disclaimer

   EN    FR    IT 

 










Legend :    VFR   Marginal VFR   IFR   Intensive IFR   Very Intensive IFR
Visi :
Ceiling :
>= 8 km
>= 3000ft
5 to 8 km
1000 to 3000 ft
1500m to 5 km
500 to 1000 ft
800 to 1500m
200 to 500 ft
< 800m
< 200 ft
Symbols :   Thunderstorms  Fog  Heavy snow  Heavy precipitations  Wind > 20 kt
SIGMETs :     Misc.  Thunderstorms  Icing  Turbulence  Mountain Waves  Volcanic Ashes






- Airport Elevation : 7 ft
- IATA code : RET


ENRS - Røst

CURRENT METAR :
  • 201550Z AUTO 00000KT 9999 OVC030/// 05/M01 Q1024

EXPIRED METARs :
  • 201520Z AUTO 26003KT 200V330 9999 SCT028/// OVC039/// 05/M02 Q1024
  • 201450Z AUTO 30003KT 230V040 9999 BKN042/// OVC053/// 05/M02 Q1024
  • 201420Z AUTO 32003KT 290V360 9999 FEW044/// BKN057/// BKN070/// 05/M02 Q1024
  • 201350Z AUTO VRB02KT 9999 OVC055/// 05/M01 Q1024
  • 201320Z AUTO 33004KT 270V020 9999 OVC055/// 05/M01 Q1024
  • 201250Z 35004KT 300V040 9999 SCT024 BKN038 05/M01 Q1024
  • 201220Z 36005KT 320V060 9999 FEW020 BKN038 05/M00 Q1024
  • 201150Z AUTO 34007KT 310V010 9999 SCT062/// OVC074/// 06/00 Q1024
  • 201120Z AUTO 36009KT 9999 FEW035/// BKN053/// 06/00 Q1024

TAF AMD TAF ENRS
Valid from the 20 at 12:00 until the 20 at 20:00 UTC


201211Z 2012/2020 36005KT 9999 -SHRA FEW030 BKN050
TEMPO 2012/2015 FEW030CB



MET'MAP, your aeronautical weather chart ! - Copyright ORBIFLY December 2007 - Disclaimer

ORBIFLY MET'MAP TEAM :

Programming & Development : Alexandra Zaïnal
Original concept : Baudouin d'Aumeries
Technical & hardware support : Manuel Goepfert
Assistance : Marc-Olivier Méhu




SOURCES & CREDITS :

   NOAA